Time;durP1;ratioP1;P1;durP2;ratioP2;P2;SDS_P1;SDS_P2;PMS_P1;PMS_P2;Temp;Humidity;BMP_temperature;BMP_pressure;BME280_temperature;BME280_humidity;BME280_pressure;Samples;Min_cycle;Max_cycle;Signal;HPM_P1;HPM_P2
2021/07/11 00:01:12;;;;;;;7.18;4.93;;;;;;;;;;4969545;28;20105;-75
2021/07/11 00:03:38;;;;;;;6.25;4.82;;;;;;;;;;4973776;28;20485;-74
2021/07/11 00:06:05;;;;;;;11.70;5.22;;;;;;;;;;4974875;28;20038;-74
2021/07/11 00:08:31;;;;;;;6.20;5.63;;;;;;;;;;4974425;28;20023;-75
2021/07/11 00:10:57;;;;;;;6.22;5.60;;;;;;;;;;4974268;28;20477;-75
2021/07/11 00:13:23;;;;;;;7.05;5.57;;;;;;;;;;4975295;28;20497;-75
2021/07/11 00:15:49;;;;;;;6.13;5.63;;;;;;;;;;4974684;28;20477;-74
2021/07/11 00:18:15;;;;;;;8.15;4.90;;;;;;;;;;4974570;28;20029;-75
2021/07/11 00:20:41;;;;;;;6.97;5.03;;;;;;;;;;4974036;28;20023;-75
2021/07/11 00:23:07;;;;;;;7.65;5.93;;;;;;;;;;4974384;28;20034;-75
2021/07/11 00:25:33;;;;;;;16.73;5.50;;;;;;;;;;4974939;28;20519;-75
2021/07/11 00:27:59;;;;;;;8.23;6.65;;;;;;;;;;4974622;28;20030;-75
2021/07/11 00:30:26;;;;;;;6.13;5.22;;;;;;;;;;4974302;28;20030;-75
2021/07/11 00:32:54;;;;;;;7.32;4.75;;;;;;;;;;4973632;28;20375;-74
2021/07/11 00:35:20;;;;;;;5.00;4.60;;;;;;;;;;4974596;28;20469;-74
2021/07/11 00:37:46;;;;;;;5.07;4.68;;;;;;;;;;4973424;28;20034;-75
2021/07/11 00:40:12;;;;;;;5.50;5.00;;;;;;;;;;4973830;28;20019;-75
2021/07/11 00:42:38;;;;;;;6.60;4.97;;;;;;;;;;4972287;28;20030;-74
2021/07/11 00:45:05;;;;;;;5.40;4.82;;;;;;;;;;4972779;28;20465;-74
2021/07/11 00:47:31;;;;;;;5.97;4.95;;;;;;;;;;4973916;28;20465;-75
2021/07/11 00:49:57;;;;;;;5.55;5.05;;;;;;;;;;4973879;28;20369;-75
2021/07/11 00:52:23;;;;;;;5.40;4.90;;;;;;;;;;4971734;28;20039;-75
2021/07/11 00:54:49;;;;;;;5.88;4.63;;;;;;;;;;4974755;28;20059;-75
2021/07/11 00:57:15;;;;;;;9.73;4.72;;;;;;;;;;4973677;28;20022;-75
2021/07/11 00:59:41;;;;;;;5.75;4.63;;;;;;;;;;4972738;28;20062;-75
2021/07/11 01:02:09;;;;;;;4.78;4.38;;;;;;;;;;4974492;28;20022;-75
2021/07/11 01:04:39;;;;;;;7.07;4.72;;;;;;;;;;4974772;28;20461;-75
2021/07/11 01:07:05;;;;;;;7.72;4.63;;;;;;;;;;4973389;28;20038;-75
2021/07/11 01:09:32;;;;;;;4.75;4.35;;;;;;;;;;4974438;28;20030;-75
2021/07/11 01:12:01;;;;;;;9.25;4.57;;;;;;;;;;4975068;28;20078;-75
2021/07/11 01:14:29;;;;;;;8.18;4.75;;;;;;;;;;4974603;28;20065;-76
2021/07/11 01:16:55;;;;;;;11.85;4.80;;;;;;;;;;4974700;28;20030;-75
2021/07/11 01:19:32;;;;;;;13.68;4.82;;;;;;;;;;4974284;28;20106;-75
2021/07/11 01:21:59;;;;;;;12.18;5.50;;;;;;;;;;4975252;28;20027;-75
2021/07/11 01:24:25;;;;;;;12.63;4.57;;;;;;;;;;4974741;28;20037;-75
2021/07/11 01:26:51;;;;;;;6.75;5.35;;;;;;;;;;4974480;28;20033;-75
2021/07/11 01:29:18;;;;;;;5.03;4.63;;;;;;;;;;4974255;28;20027;-75
2021/07/11 01:31:44;;;;;;;11.18;4.97;;;;;;;;;;4976160;28;20101;-75
2021/07/11 01:34:10;;;;;;;7.78;5.22;;;;;;;;;;4977832;28;20027;-75
2021/07/11 01:36:36;;;;;;;7.03;4.22;;;;;;;;;;4978296;28;20030;-75
2021/07/11 01:39:03;;;;;;;5.85;4.60;;;;;;;;;;4978194;28;20477;-76
2021/07/11 01:41:29;;;;;;;5.43;4.60;;;;;;;;;;4977921;28;20140;-76
2021/07/11 01:43:55;;;;;;;6.13;4.72;;;;;;;;;;4978176;28;20026;-75
2021/07/11 01:46:22;;;;;;;5.75;4.32;;;;;;;;;;4978310;28;20027;-75
2021/07/11 01:48:48;;;;;;;5.68;5.18;;;;;;;;;;4977603;28;20019;-75
2021/07/11 01:51:14;;;;;;;4.70;4.10;;;;;;;;;;4977922;28;20023;-75
2021/07/11 01:53:41;;;;;;;5.15;4.68;;;;;;;;;;4977508;28;20064;-75
2021/07/11 01:56:08;;;;;;;8.02;5.10;;;;;;;;;;4977863;28;20077;-75
2021/07/11 01:58:34;;;;;;;4.40;4.05;;;;;;;;;;4977745;28;20177;-75
2021/07/11 02:01:00;;;;;;;5.05;4.55;;;;;;;;;;4977754;28;20054;-75
2021/07/11 02:03:26;;;;;;;5.20;4.70;;;;;;;;;;4977196;28;20477;-75
2021/07/11 02:05:53;;;;;;;6.90;4.68;;;;;;;;;;4978285;28;20050;-75
2021/07/11 02:08:19;;;;;;;4.50;4.10;;;;;;;;;;4978084;28;20029;-75
2021/07/11 02:10:46;;;;;;;5.93;4.28;;;;;;;;;;4977642;28;20070;-75
2021/07/11 02:13:13;;;;;;;7.28;4.72;;;;;;;;;;4977784;28;20031;-75
2021/07/11 02:15:42;;;;;;;5.38;4.45;;;;;;;;;;4977376;28;20043;-75
2021/07/11 02:18:08;;;;;;;4.85;4.45;;;;;;;;;;4977302;28;20023;-75
2021/07/11 02:20:35;;;;;;;5.18;4.68;;;;;;;;;;4977545;28;20377;-75
2021/07/11 02:23:01;;;;;;;5.55;4.63;;;;;;;;;;4977464;28;20031;-75
2021/07/11 02:25:27;;;;;;;4.95;4.55;;;;;;;;;;4977164;28;20120;-74
2021/07/11 02:27:53;;;;;;;5.78;4.45;;;;;;;;;;4977326;28;20058;-75
2021/07/11 02:30:23;;;;;;;6.75;4.85;;;;;;;;;;4977319;28;20031;-75
2021/07/11 02:32:50;;;;;;;4.05;3.75;;;;;;;;;;4977263;28;20524;-75
2021/07/11 02:35:16;;;;;;;4.82;3.85;;;;;;;;;;4977124;28;20049;-75
2021/07/11 02:37:43;;;;;;;5.18;4.20;;;;;;;;;;4976977;28;20023;-75
2021/07/11 02:40:09;;;;;;;5.15;4.65;;;;;;;;;;4977092;28;20022;-75
2021/07/11 02:42:35;;;;;;;4.95;4.35;;;;;;;;;;4976486;28;20038;-74
2021/07/11 02:45:01;;;;;;;6.07;4.07;;;;;;;;;;4976738;28;20037;-75
2021/07/11 02:47:28;;;;;;;5.20;4.70;;;;;;;;;;4976667;28;20031;-75
2021/07/11 02:49:54;;;;;;;5.53;4.95;;;;;;;;;;4977102;28;20043;-75
2021/07/11 02:52:21;;;;;;;6.70;4.57;;;;;;;;;;4977435;28;20022;-75
2021/07/11 02:54:49;;;;;;;4.75;4.35;;;;;;;;;;4976534;28;20058;-75
2021/07/11 02:57:18;;;;;;;5.43;4.18;;;;;;;;;;4976595;28;20385;-75
2021/07/11 02:59:44;;;;;;;7.88;4.65;;;;;;;;;;4976372;28;20018;-74
2021/07/11 03:02:10;;;;;;;5.60;4.68;;;;;;;;;;4976850;28;20022;-75
2021/07/11 03:04:38;;;;;;;5.15;4.72;;;;;;;;;;4976822;28;20517;-75
2021/07/11 03:07:05;;;;;;;5.07;4.68;;;;;;;;;;4976806;28;20029;-75
2021/07/11 03:09:31;;;;;;;7.25;4.25;;;;;;;;;;4976435;28;20105;-74
2021/07/11 03:11:57;;;;;;;4.75;4.35;;;;;;;;;;4976557;28;20030;-74
2021/07/11 03:14:23;;;;;;;10.82;5.20;;;;;;;;;;4976060;28;20519;-75
2021/07/11 03:16:51;;;;;;;4.30;4.00;;;;;;;;;;4976540;28;20035;-74
2021/07/11 03:19:17;;;;;;;4.72;4.32;;;;;;;;;;4976432;28;20475;-74
2021/07/11 03:21:43;;;;;;;4.95;4.55;;;;;;;;;;4976168;28;20023;-75
2021/07/11 03:24:09;;;;;;;5.63;4.60;;;;;;;;;;4976194;28;20027;-74
2021/07/11 03:26:36;;;;;;;4.25;3.85;;;;;;;;;;4976035;28;20445;-74
2021/07/11 03:29:06;;;;;;;5.22;4.32;;;;;;;;;;4975735;28;20049;-75
2021/07/11 03:31:32;;;;;;;4.60;4.28;;;;;;;;;;4975807;28;20350;-74
2021/07/11 03:33:58;;;;;;;4.75;4.35;;;;;;;;;;4976241;28;20034;-74
2021/07/11 03:36:24;;;;;;;4.70;4.30;;;;;;;;;;4979658;28;20082;-74
2021/07/11 03:38:51;;;;;;;8.40;4.43;;;;;;;;;;4976079;28;20109;-76
2021/07/11 03:41:18;;;;;;;6.07;4.60;;;;;;;;;;4976101;28;20065;-76
2021/07/11 03:43:45;;;;;;;5.43;4.93;;;;;;;;;;4975738;28;20030;-75
2021/07/11 03:46:11;;;;;;;4.88;4.32;;;;;;;;;;4975964;28;20034;-75
2021/07/11 03:48:40;;;;;;;5.50;5.00;;;;;;;;;;4975892;28;20027;-74
2021/07/11 03:51:06;;;;;;;6.60;5.25;;;;;;;;;;4975788;28;20139;-75
2021/07/11 03:53:33;;;;;;;6.15;5.65;;;;;;;;;;4975331;28;20054;-75
2021/07/11 03:55:59;;;;;;;4.13;3.72;;;;;;;;;;4974563;28;20090;-75
2021/07/11 03:58:26;;;;;;;5.50;4.63;;;;;;;;;;4975562;28;20030;-75
2021/07/11 04:00:52;;;;;;;4.88;4.47;;;;;;;;;;4975612;28;20057;-75
2021/07/11 04:03:19;;;;;;;4.85;4.35;;;;;;;;;;4975639;28;20533;-74
2021/07/11 04:05:46;;;;;;;8.38;4.63;;;;;;;;;;4975596;28;20481;-75
2021/07/11 04:08:15;;;;;;;7.35;4.40;;;;;;;;;;4975496;28;20078;-74
2021/07/11 04:10:41;;;;;;;6.28;3.90;;;;;;;;;;4975288;28;20030;-74
2021/07/11 04:13:07;;;;;;;5.30;4.80;;;;;;;;;;4975269;28;20042;-75
2021/07/11 04:15:33;;;;;;;5.28;4.63;;;;;;;;;;4974985;28;20125;-74
2021/07/11 04:18:04;;;;;;;4.47;4.10;;;;;;;;;;4975270;28;20029;-75
2021/07/11 04:20:30;;;;;;;5.28;4.38;;;;;;;;;;4975758;28;20209;-74
2021/07/11 04:22:56;;;;;;;7.32;4.78;;;;;;;;;;4975640;28;20035;-75
2021/07/11 04:25:22;;;;;;;5.13;4.55;;;;;;;;;;4975013;28;20054;-75
2021/07/11 04:27:49;;;;;;;5.57;4.30;;;;;;;;;;4975147;28;20038;-76
2021/07/11 04:30:15;;;;;;;8.32;4.75;;;;;;;;;;4975111;28;20465;-75
2021/07/11 04:32:41;;;;;;;7.88;4.70;;;;;;;;;;4975184;28;20027;-74
2021/07/11 04:35:08;;;;;;;7.88;5.63;;;;;;;;;;4974559;28;20023;-75
2021/07/11 04:37:34;;;;;;;5.38;4.80;;;;;;;;;;4974084;28;20354;-73
2021/07/11 04:40:00;;;;;;;7.05;5.50;;;;;;;;;;4973891;28;20030;-73
2021/07/11 04:42:27;;;;;;;4.75;4.35;;;;;;;;;;4973539;28;20025;-72
2021/07/11 04:44:53;;;;;;;5.35;4.85;;;;;;;;;;4973737;28;20031;-72
2021/07/11 04:47:19;;;;;;;7.55;4.55;;;;;;;;;;4973811;28;20358;-74
2021/07/11 04:49:45;;;;;;;5.00;4.60;;;;;;;;;;4973536;28;20429;-73
2021/07/11 04:52:11;;;;;;;5.43;4.93;;;;;;;;;;4973514;28;20081;-73
2021/07/11 04:54:37;;;;;;;5.07;4.57;;;;;;;;;;4973091;28;20050;-74
2021/07/11 04:57:03;;;;;;;5.22;4.57;;;;;;;;;;4973500;28;20033;-75
2021/07/11 04:59:30;;;;;;;4.15;3.80;;;;;;;;;;4973339;28;20030;-73
2021/07/11 05:01:56;;;;;;;5.50;5.00;;;;;;;;;;4973314;28;20070;-73
2021/07/11 05:04:22;;;;;;;7.05;5.68;;;;;;;;;;4973589;28;20035;-72
2021/07/11 05:06:48;;;;;;;6.10;5.50;;;;;;;;;;4972831;28;20538;-73
2021/07/11 05:09:15;;;;;;;5.22;4.82;;;;;;;;;;4973169;28;20535;-73
2021/07/11 05:11:41;;;;;;;5.47;4.65;;;;;;;;;;4972764;28;20031;-75
2021/07/11 05:14:07;;;;;;;4.80;4.40;;;;;;;;;;4973166;28;20034;-74
2021/07/11 05:16:33;;;;;;;5.47;4.97;;;;;;;;;;4973290;28;20543;-77
2021/07/11 05:18:59;;;;;;;5.22;4.72;;;;;;;;;;4972762;28;20377;-73
2021/07/11 05:21:25;;;;;;;5.53;5.10;;;;;;;;;;4972753;28;20046;-73
2021/07/11 05:23:51;;;;;;;5.45;5.05;;;;;;;;;;4973200;28;20165;-72
2021/07/11 05:26:17;;;;;;;6.22;5.63;;;;;;;;;;4970188;28;20035;-72
2021/07/11 05:28:44;;;;;;;5.45;5.00;;;;;;;;;;4973595;28;20106;-72
2021/07/11 05:31:11;;;;;;;6.68;4.68;;;;;;;;;;4973021;28;20031;-72
2021/07/11 05:33:37;;;;;;;6.03;5.53;;;;;;;;;;4972876;28;20023;-72
2021/07/11 05:36:03;;;;;;;5.28;4.88;;;;;;;;;;4973126;28;20045;-75
2021/07/11 05:38:29;;;;;;;5.43;4.95;;;;;;;;;;4973813;28;20030;-72
2021/07/11 05:40:55;;;;;;;5.60;5.20;;;;;;;;;;4973209;28;20106;-72
2021/07/11 05:43:22;;;;;;;6.15;4.95;;;;;;;;;;4973633;28;20026;-75
2021/07/11 05:45:48;;;;;;;5.80;5.30;;;;;;;;;;4973787;28;20026;-73
2021/07/11 05:48:14;;;;;;;6.32;5.72;;;;;;;;;;4973084;28;20109;-72
2021/07/11 05:50:40;;;;;;;7.07;5.57;;;;;;;;;;4973293;28;20086;-71
2021/07/11 05:53:10;;;;;;;8.50;5.55;;;;;;;;;;4972989;28;20106;-74
2021/07/11 05:55:36;;;;;;;6.25;5.45;;;;;;;;;;4972501;28;20055;-72
2021/07/11 05:58:02;;;;;;;5.63;5.13;;;;;;;;;;4973120;28;20031;-71
2021/07/11 06:00:28;;;;;;;8.18;5.85;;;;;;;;;;4973226;28;20106;-72
2021/07/11 06:02:54;;;;;;;6.10;4.85;;;;;;;;;;4973198;28;20081;-71
2021/07/11 06:05:21;;;;;;;5.60;5.03;;;;;;;;;;4973059;28;20039;-73
2021/07/11 06:07:47;;;;;;;6.03;4.45;;;;;;;;;;4972567;28;20388;-72
2021/07/11 06:10:13;;;;;;;6.70;5.35;;;;;;;;;;4972537;28;20043;-72
2021/07/11 06:12:39;;;;;;;6.32;5.70;;;;;;;;;;4972838;28;20377;-73
2021/07/11 06:15:05;;;;;;;5.28;4.88;;;;;;;;;;4972486;28;20085;-72
2021/07/11 06:17:33;;;;;;;12.80;5.63;;;;;;;;;;4972531;28;20027;-72
2021/07/11 06:20:00;;;;;;;9.57;5.82;;;;;;;;;;4975707;28;20034;-71
2021/07/11 06:22:26;;;;;;;5.05;4.65;;;;;;;;;;4975868;28;20041;-70
2021/07/11 06:24:52;;;;;;;5.75;5.25;;;;;;;;;;4976855;28;20109;-72
2021/07/11 06:27:18;;;;;;;7.78;5.78;;;;;;;;;;4977273;28;20030;-73
2021/07/11 06:29:44;;;;;;;6.97;6.38;;;;;;;;;;4975791;28;20034;-73
2021/07/11 06:32:11;;;;;;;6.35;5.85;;;;;;;;;;4974122;28;20038;-74
2021/07/11 06:34:37;;;;;;;6.38;5.78;;;;;;;;;;4976222;28;20411;-72
2021/07/11 06:37:03;;;;;;;5.63;5.20;;;;;;;;;;4976841;28;20026;-74
2021/07/11 06:39:29;;;;;;;7.43;6.00;;;;;;;;;;4976445;28;20843;-74
2021/07/11 06:41:55;;;;;;;6.45;5.85;;;;;;;;;;4976911;28;20078;-73
2021/07/11 06:44:21;;;;;;;8.93;5.47;;;;;;;;;;4975944;28;20035;-73
2021/07/11 06:46:47;;;;;;;5.45;5.05;;;;;;;;;;4976841;28;20476;-73
2021/07/11 06:49:13;;;;;;;5.47;5.07;;;;;;;;;;4976450;28;20358;-74
2021/07/11 06:51:39;;;;;;;12.73;5.70;;;;;;;;;;4976788;28;20142;-72
2021/07/11 06:54:05;;;;;;;16.25;6.20;;;;;;;;;;4976339;28;20073;-73
2021/07/11 06:56:31;;;;;;;6.97;5.05;;;;;;;;;;4976631;28;20031;-74
2021/07/11 06:58:58;;;;;;;12.18;6.13;;;;;;;;;;4976441;28;20052;-74
2021/07/11 07:01:24;;;;;;;7.75;5.30;;;;;;;;;;4976195;28;20023;-73
2021/07/11 07:03:50;;;;;;;7.32;6.40;;;;;;;;;;4976142;28;20608;-73
2021/07/11 07:06:16;;;;;;;36.15;16.25;;;;;;;;;;4976573;28;20495;-74
2021/07/11 07:08:42;;;;;;;30.02;11.70;;;;;;;;;;4976193;28;20097;-74
2021/07/11 07:11:08;;;;;;;19.90;9.10;;;;;;;;;;4976779;28;20023;-73
2021/07/11 07:13:34;;;;;;;16.52;8.15;;;;;;;;;;4976007;28;20500;-74
2021/07/11 07:16:00;;;;;;;23.95;11.52;;;;;;;;;;4976082;28;20042;-76
2021/07/11 07:18:26;;;;;;;18.92;11.73;;;;;;;;;;4976476;28;20027;-75
2021/07/11 07:20:52;;;;;;;23.20;11.15;;;;;;;;;;4976249;28;20023;-75
2021/07/11 07:23:18;;;;;;;15.13;10.00;;;;;;;;;;4976232;28;20528;-74
2021/07/11 07:25:44;;;;;;;16.45;9.52;;;;;;;;;;4975338;28;20496;-74
2021/07/11 07:28:11;;;;;;;29.40;9.55;;;;;;;;;;4976656;28;20388;-74
2021/07/11 07:30:38;;;;;;;20.83;9.55;;;;;;;;;;4975738;28;20023;-75
2021/07/11 07:33:04;;;;;;;30.13;8.95;;;;;;;;;;4977050;28;20109;-74
2021/07/11 07:35:30;;;;;;;21.48;9.60;;;;;;;;;;4976407;28;20031;-75
2021/07/11 07:37:56;;;;;;;13.00;8.60;;;;;;;;;;4975670;28;20030;-75
2021/07/11 07:40:22;;;;;;;13.55;7.75;;;;;;;;;;4976859;28;20114;-74
2021/07/11 07:42:48;;;;;;;11.93;7.00;;;;;;;;;;4976205;28;20030;-75
2021/07/11 07:45:14;;;;;;;10.73;6.88;;;;;;;;;;4976798;28;20042;-76
2021/07/11 07:47:41;;;;;;;10.77;7.78;;;;;;;;;;4975672;28;20057;-74
2021/07/11 07:50:08;;;;;;;8.30;7.22;;;;;;;;;;4975330;28;20372;-76
2021/07/11 07:52:34;;;;;;;8.52;7.70;;;;;;;;;;4975664;28;20432;-75
2021/07/11 07:55:00;;;;;;;8.10;7.30;;;;;;;;;;4975751;28;20059;-74
2021/07/11 07:57:26;;;;;;;7.07;6.45;;;;;;;;;;4974991;28;20031;-75
2021/07/11 07:59:52;;;;;;;7.75;6.25;;;;;;;;;;4974133;28;20505;-75
2021/07/11 08:02:18;;;;;;;8.15;7.00;;;;;;;;;;4975141;28;20030;-75
2021/07/11 08:04:44;;;;;;;7.90;6.10;;;;;;;;;;4975661;28;20031;-74
2021/07/11 08:07:10;;;;;;;7.72;6.90;;;;;;;;;;4975012;28;20035;-74
2021/07/11 08:09:36;;;;;;;8.02;6.97;;;;;;;;;;4975241;28;20035;-74
2021/07/11 08:12:02;;;;;;;30.15;8.13;;;;;;;;;;4975385;28;20027;-75
2021/07/11 08:14:28;;;;;;;8.40;6.90;;;;;;;;;;4985279;28;20105;-76
2021/07/11 08:16:56;;;;;;;13.13;6.35;;;;;;;;;;4992698;28;20026;-76
2021/07/11 08:19:22;;;;;;;7.38;6.68;;;;;;;;;;4974873;28;20034;-74
2021/07/11 08:21:49;;;;;;;9.30;6.75;;;;;;;;;;4975348;28;20034;-75
2021/07/11 08:24:15;;;;;;;6.45;5.85;;;;;;;;;;4976976;28;20034;-76
2021/07/11 08:26:41;;;;;;;5.88;5.38;;;;;;;;;;4976495;28;20065;-75
2021/07/11 08:29:07;;;;;;;8.48;5.57;;;;;;;;;;4975447;28;20030;-75
2021/07/11 08:31:33;;;;;;;7.25;5.30;;;;;;;;;;4976251;28;20037;-75
2021/07/11 08:33:59;;;;;;;7.85;5.95;;;;;;;;;;4976904;28;20031;-76
2021/07/11 08:36:27;;;;;;;9.38;6.28;;;;;;;;;;4975545;28;20489;-75
2021/07/11 08:38:53;;;;;;;5.22;4.78;;;;;;;;;;4975003;28;20023;-78
2021/07/11 08:41:19;;;;;;;7.43;6.40;;;;;;;;;;4975462;28;20496;-77
2021/07/11 08:43:46;;;;;;;8.48;5.78;;;;;;;;;;4976282;28;20027;-80
2021/07/11 08:46:12;;;;;;;5.95;4.57;;;;;;;;;;4976620;28;20023;-77
2021/07/11 08:48:40;;;;;;;7.82;5.45;;;;;;;;;;4974336;28;20027;-74
2021/07/11 08:51:06;;;;;;;5.95;5.45;;;;;;;;;;4975241;28;20113;-72
2021/07/11 08:53:34;;;;;;;5.75;5.32;;;;;;;;;;4975558;28;20042;-76
2021/07/11 08:56:02;;;;;;;7.78;5.63;;;;;;;;;;4976108;28;20061;-77
2021/07/11 08:58:28;;;;;;;6.97;4.93;;;;;;;;;;4975315;28;20363;-76
2021/07/11 09:00:55;;;;;;;7.50;5.35;;;;;;;;;;4976558;28;20398;-75
2021/07/11 09:03:21;;;;;;;5.72;5.05;;;;;;;;;;4976561;28;20468;-74
2021/07/11 09:05:52;;;;;;;6.00;5.38;;;;;;;;;;4974081;28;20552;-78
2021/07/11 09:08:23;;;;;;;6.20;5.70;;;;;;;;;;4975012;28;20034;-77
2021/07/11 09:10:51;;;;;;;5.55;5.15;;;;;;;;;;4974256;28;20061;-76
2021/07/11 09:13:18;;;;;;;5.80;5.10;;;;;;;;;;4983358;28;20532;-79
2021/07/11 09:15:47;;;;;;;5.93;5.30;;;;;;;;;;4985961;28;20054;-85
2021/07/11 09:18:13;;;;;;;5.85;5.32;;;;;;;;;;4976333;28;20031;-74
2021/07/11 09:20:59;;;;;;;8.40;5.15;;;;;;;;;;4975971;28;20030;-73
2021/07/11 09:23:26;;;;;;;6.55;5.45;;;;;;;;;;4974721;28;20042;-74
2021/07/11 09:25:55;;;;;;;5.28;4.78;;;;;;;;;;4974840;28;20023;-74
2021/07/11 09:28:22;;;;;;;8.82;4.40;;;;;;;;;;4975037;28;20031;-76
2021/07/11 09:30:59;;;;;;;7.32;5.32;;;;;;;;;;4975728;28;20469;-75
2021/07/11 09:33:25;;;;;;;6.00;4.80;;;;;;;;;;4976231;28;20030;-74
2021/07/11 09:35:51;;;;;;;6.45;4.72;;;;;;;;;;4973693;28;20133;-74
2021/07/11 09:38:27;;;;;;;8.43;5.43;;;;;;;;;;4975758;28;20042;-75
2021/07/11 09:40:53;;;;;;;6.72;5.68;;;;;;;;;;4975455;28;20031;-76
2021/07/11 09:43:19;;;;;;;6.55;5.25;;;;;;;;;;4975707;28;20062;-75
2021/07/11 09:45:45;;;;;;;10.77;5.13;;;;;;;;;;4973991;28;20479;-76
2021/07/11 09:48:11;;;;;;;6.88;5.18;;;;;;;;;;4974927;28;20035;-76
2021/07/11 09:50:37;;;;;;;18.10;4.63;;;;;;;;;;4974941;28;20105;-76
2021/07/11 09:53:06;;;;;;;10.65;4.07;;;;;;;;;;4975502;28;20027;-75
2021/07/11 09:55:33;;;;;;;7.05;5.72;;;;;;;;;;4978077;28;20567;-75
2021/07/11 09:58:01;;;;;;;16.13;5.70;;;;;;;;;;4976460;28;20074;-76
2021/07/11 10:00:28;;;;;;;9.27;6.10;;;;;;;;;;4979717;28;20033;-78
2021/07/11 10:02:55;;;;;;;18.08;6.10;;;;;;;;;;4978898;28;20500;-73
2021/07/11 10:05:21;;;;;;;7.30;5.57;;;;;;;;;;4979148;28;20084;-74
2021/07/11 10:07:47;;;;;;;10.88;5.82;;;;;;;;;;4975144;28;20540;-75
2021/07/11 10:10:14;;;;;;;7.43;5.65;;;;;;;;;;4977852;28;20480;-72
2021/07/11 10:12:41;;;;;;;13.60;5.43;;;;;;;;;;4977835;28;20443;-74
2021/07/11 10:15:11;;;;;;;8.77;5.90;;;;;;;;;;4978136;28;20065;-74
2021/07/11 10:17:37;;;;;;;9.73;5.45;;;;;;;;;;4974958;28;20469;-73
2021/07/11 10:20:04;;;;;;;9.32;5.40;;;;;;;;;;4977746;28;20118;-73
2021/07/11 10:22:30;;;;;;;17.90;10.20;;;;;;;;;;4978083;28;20074;-77
2021/07/11 10:24:56;;;;;;;6.85;5.70;;;;;;;;;;4978538;28;20104;-73
2021/07/11 10:27:26;;;;;;;10.70;5.90;;;;;;;;;;4974833;28;20023;-73
2021/07/11 10:29:53;;;;;;;5.90;5.22;;;;;;;;;;4977656;28;20033;-72
2021/07/11 10:32:21;;;;;;;9.50;6.45;;;;;;;;;;4978383;28;20030;-74
2021/07/11 10:34:47;;;;;;;5.07;4.57;;;;;;;;;;4978750;28;20069;-74
2021/07/11 10:37:14;;;;;;;8.70;6.35;;;;;;;;;;4975288;28;20031;-72
2021/07/11 10:39:40;;;;;;;13.25;5.97;;;;;;;;;;4977881;28;20038;-74
2021/07/11 10:42:06;;;;;;;7.53;5.85;;;;;;;;;;4977864;28;20037;-72
2021/07/11 10:44:32;;;;;;;9.02;5.38;;;;;;;;;;4979055;28;20027;-73
2021/07/11 10:46:59;;;;;;;8.05;5.60;;;;;;;;;;4977714;28;20031;-74
2021/07/11 10:49:25;;;;;;;6.93;6.28;;;;;;;;;;4976863;28;20034;-74
2021/07/11 10:51:53;;;;;;;9.40;5.47;;;;;;;;;;4977182;28;20040;-75
2021/07/11 10:54:21;;;;;;;12.05;4.88;;;;;;;;;;4975467;28;20058;-74
2021/07/11 10:56:47;;;;;;;8.68;6.00;;;;;;;;;;4976985;28;20019;-75
2021/07/11 10:59:24;;;;;;;8.60;5.35;;;;;;;;;;4976950;28;20420;-73
2021/07/11 11:01:50;;;;;;;6.45;5.85;;;;;;;;;;4976779;28;20101;-74
2021/07/11 11:04:16;;;;;;;9.07;6.32;;;;;;;;;;4976101;28;20077;-75
2021/07/11 11:06:42;;;;;;;8.45;5.60;;;;;;;;;;4976460;28;20074;-75
2021/07/11 11:09:08;;;;;;;10.23;5.88;;;;;;;;;;4975950;28;20027;-75
2021/07/11 11:11:35;;;;;;;8.52;5.22;;;;;;;;;;4975649;28;20481;-76
2021/07/11 11:14:04;;;;;;;13.82;5.57;;;;;;;;;;4976418;28;20535;-74
2021/07/11 11:16:39;;;;;;;6.55;5.35;;;;;;;;;;4976218;28;20046;-75
2021/07/11 11:19:05;;;;;;;6.30;5.63;;;;;;;;;;4975858;28;20469;-76
2021/07/11 11:21:32;;;;;;;9.23;5.40;;;;;;;;;;4975791;28;20389;-73
2021/07/11 11:23:58;;;;;;;6.47;5.75;;;;;;;;;;4976254;28;20536;-73
2021/07/11 11:26:24;;;;;;;16.85;5.97;;;;;;;;;;4976146;28;20469;-72
2021/07/11 11:28:51;;;;;;;6.57;5.25;;;;;;;;;;4976249;28;20073;-73
2021/07/11 11:31:20;;;;;;;8.35;6.35;;;;;;;;;;4975990;28;20027;-72
2021/07/11 11:33:47;;;;;;;7.07;5.80;;;;;;;;;;4975878;28;20029;-73
2021/07/11 11:36:13;;;;;;;11.43;5.65;;;;;;;;;;4975537;28;20097;-74
2021/07/11 11:38:42;;;;;;;19.25;5.70;;;;;;;;;;4976212;28;20023;-73
2021/07/11 11:41:12;;;;;;;5.47;5.07;;;;;;;;;;4987019;28;20069;-72
2021/07/11 11:43:39;;;;;;;5.97;5.47;;;;;;;;;;4995065;28;20414;-73
2021/07/11 11:46:05;;;;;;;8.75;5.85;;;;;;;;;;4995405;28;20034;-71
2021/07/11 11:48:31;;;;;;;7.32;5.15;;;;;;;;;;4995126;28;20105;-72
2021/07/11 11:51:01;;;;;;;6.60;6.00;;;;;;;;;;4994602;28;20089;-71
2021/07/11 11:53:27;;;;;;;7.70;7.00;;;;;;;;;;4994755;28;20439;-73
2021/07/11 11:55:54;;;;;;;6.32;5.32;;;;;;;;;;4994911;28;20051;-71
2021/07/11 11:58:28;;;;;;;6.85;6.20;;;;;;;;;;4995022;28;20117;-71
2021/07/11 12:01:02;;;;;;;6.25;5.65;;;;;;;;;;4994999;28;20464;-71
2021/07/11 12:03:28;;;;;;;9.57;5.35;;;;;;;;;;4994064;28;20026;-71
2021/07/11 12:05:54;;;;;;;6.10;5.50;;;;;;;;;;4995578;28;20042;-72
2021/07/11 12:08:20;;;;;;;5.03;4.55;;;;;;;;;;4994878;28;20029;-74
2021/07/11 12:10:47;;;;;;;9.00;4.95;;;;;;;;;;4995140;28;20030;-73
2021/07/11 12:13:20;;;;;;;10.13;6.60;;;;;;;;;;4994324;28;20026;-73
2021/07/11 12:15:46;;;;;;;8.98;5.25;;;;;;;;;;4993823;28;20531;-72
2021/07/11 12:18:13;;;;;;;7.40;4.97;;;;;;;;;;4994618;28;20539;-71
2021/07/11 12:20:39;;;;;;;16.15;5.07;;;;;;;;;;4994379;28;20110;-73
2021/07/11 12:23:12;;;;;;;7.00;5.28;;;;;;;;;;4995097;28;20126;-73
2021/07/11 12:25:41;;;;;;;7.05;5.35;;;;;;;;;;4994017;28;20026;-74
2021/07/11 12:28:08;;;;;;;6.97;6.30;;;;;;;;;;4994300;28;20022;-73
2021/07/11 12:30:36;;;;;;;4.82;4.43;;;;;;;;;;4994199;28;20030;-73
2021/07/11 12:33:02;;;;;;;5.82;4.45;;;;;;;;;;4994608;28;20034;-75
2021/07/11 12:35:28;;;;;;;6.50;5.25;;;;;;;;;;4993678;28;20038;-75
2021/07/11 12:37:55;;;;;;;4.97;4.45;;;;;;;;;;4993347;28;20476;-72
2021/07/11 12:40:22;;;;;;;7.53;5.35;;;;;;;;;;4993298;28;20038;-73
2021/07/11 12:42:50;;;;;;;4.68;4.38;;;;;;;;;;4993857;28;20416;-73
2021/07/11 12:45:16;;;;;;;5.80;4.72;;;;;;;;;;4985074;28;20038;-73
2021/07/11 12:47:51;;;;;;;6.55;5.45;;;;;;;;;;4974704;28;20027;-75
2021/07/11 12:50:17;;;;;;;4.65;4.25;;;;;;;;;;4975134;28;20098;-74
2021/07/11 12:52:52;;;;;;;5.53;5.03;;;;;;;;;;4975011;28;20540;-74
2021/07/11 12:55:18;;;;;;;7.32;4.95;;;;;;;;;;4973828;28;20374;-73
2021/07/11 12:57:44;;;;;;;7.15;5.38;;;;;;;;;;4973590;28;20022;-74
2021/07/11 13:00:10;;;;;;;7.78;4.75;;;;;;;;;;4974955;28;20026;-74
2021/07/11 13:02:39;;;;;;;7.10;6.40;;;;;;;;;;4973965;28;20019;-75
2021/07/11 13:05:09;;;;;;;7.90;5.65;;;;;;;;;;4974322;28;20093;-74
2021/07/11 13:07:35;;;;;;;5.75;5.25;;;;;;;;;;4972216;28;20481;-73
2021/07/11 13:10:03;;;;;;;6.72;4.88;;;;;;;;;;4973213;28;20027;-74
2021/07/11 13:12:29;;;;;;;5.68;4.82;;;;;;;;;;4973529;28;20030;-75
2021/07/11 13:14:55;;;;;;;5.93;5.35;;;;;;;;;;4974756;28;20046;-75
2021/07/11 13:17:22;;;;;;;8.43;5.57;;;;;;;;;;4979290;28;20023;-74
2021/07/11 13:19:48;;;;;;;8.80;5.20;;;;;;;;;;4975834;28;20058;-75
2021/07/11 13:22:14;;;;;;;5.30;4.80;;;;;;;;;;4975202;28;20130;-76
2021/07/11 13:24:40;;;;;;;6.45;5.60;;;;;;;;;;4975858;28;20023;-72
2021/07/11 13:27:06;;;;;;;4.43;4.13;;;;;;;;;;4973831;28;20034;-75
2021/07/11 13:29:32;;;;;;;6.70;5.78;;;;;;;;;;4979021;28;20491;-74
2021/07/11 13:31:58;;;;;;;5.55;5.05;;;;;;;;;;4979492;28;20027;-75
2021/07/11 13:34:24;;;;;;;5.63;4.05;;;;;;;;;;4979071;28;20027;-77
2021/07/11 13:36:50;;;;;;;4.60;4.20;;;;;;;;;;4976900;28;20607;-74
2021/07/11 13:39:17;;;;;;;5.00;4.60;;;;;;;;;;4978563;28;20027;-74
2021/07/11 13:41:43;;;;;;;5.15;4.65;;;;;;;;;;4978126;28;20027;-72
2021/07/11 13:44:09;;;;;;;5.30;4.80;;;;;;;;;;4979038;28;20376;-75
2021/07/11 13:46:35;;;;;;;4.97;4.50;;;;;;;;;;4977214;28;20027;-74
2021/07/11 13:49:01;;;;;;;4.32;4.03;;;;;;;;;;4978369;28;20027;-74
2021/07/11 13:51:27;;;;;;;7.88;4.38;;;;;;;;;;4977758;28;20089;-74
2021/07/11 13:53:54;;;;;;;7.43;4.55;;;;;;;;;;4977745;28;20023;-74
2021/07/11 13:56:20;;;;;;;7.20;4.32;;;;;;;;;;4976642;28;20031;-74
2021/07/11 13:58:46;;;;;;;6.15;5.10;;;;;;;;;;4976323;28;20030;-73
2021/07/11 14:01:12;;;;;;;3.97;3.63;;;;;;;;;;4978683;28;20081;-73
2021/07/11 14:03:38;;;;;;;7.32;4.50;;;;;;;;;;4977529;28;20366;-74
2021/07/11 14:06:04;;;;;;;4.78;4.28;;;;;;;;;;4977288;28;20388;-71
2021/07/11 14:08:30;;;;;;;6.72;4.28;;;;;;;;;;4977935;28;20038;-71
2021/07/11 14:10:57;;;;;;;6.38;4.35;;;;;;;;;;4977697;28;20027;-73
2021/07/11 14:13:23;;;;;;;5.05;4.47;;;;;;;;;;4985542;28;20034;-72
2021/07/11 14:15:51;;;;;;;15.55;4.80;;;;;;;;;;4992949;28;20377;-74
2021/07/11 14:18:17;;;;;;;9.23;4.50;;;;;;;;;;4975090;28;20023;-73
2021/07/11 14:20:43;;;;;;;8.60;4.70;;;;;;;;;;4976722;28;20031;-71
2021/07/11 14:23:10;;;;;;;4.60;4.20;;;;;;;;;;4977293;28;20062;-73
2021/07/11 14:25:36;;;;;;;11.80;4.72;;;;;;;;;;4976574;28;20026;-72
2021/07/11 14:28:03;;;;;;;6.30;4.50;;;;;;;;;;4975643;28;20031;-73
2021/07/11 14:30:29;;;;;;;6.80;4.22;;;;;;;;;;4977316;28;20425;-75
2021/07/11 14:32:55;;;;;;;4.63;4.22;;;;;;;;;;4977157;28;20465;-73
2021/07/11 14:35:21;;;;;;;4.07;3.78;;;;;;;;;;4976668;28;20397;-72
2021/07/11 14:37:48;;;;;;;5.18;4.78;;;;;;;;;;4975804;28;20035;-74